sensor_id;sensor_type;location;lat;lon;timestamp;pressure;altitude;pressure_sealevel;temperature
70969;BMP280;58630;43.022;25.100;2023-12-04T00:01:11;;;;6.60
70969;BMP280;58630;43.022;25.100;2023-12-04T00:03:36;;;;6.60
70969;BMP280;58630;43.022;25.100;2023-12-04T00:06:02;;;;6.60
70969;BMP280;58630;43.022;25.100;2023-12-04T00:08:27;;;;6.60
70969;BMP280;58630;43.022;25.100;2023-12-04T00:10:53;;;;6.60
70969;BMP280;58630;43.022;25.100;2023-12-04T00:13:19;;;;6.60
70969;BMP280;58630;43.022;25.100;2023-12-04T00:15:45;;;;6.60
70969;BMP280;58630;43.022;25.100;2023-12-04T00:18:10;;;;6.60
70969;BMP280;58630;43.022;25.100;2023-12-04T00:20:36;;;;6.60
70969;BMP280;58630;43.022;25.100;2023-12-04T00:23:02;;;;6.60
70969;BMP280;58630;43.022;25.100;2023-12-04T00:25:28;;;;6.60
70969;BMP280;58630;43.022;25.100;2023-12-04T00:27:53;;;;6.60
70969;BMP280;58630;43.022;25.100;2023-12-04T00:30:19;;;;6.50
70969;BMP280;58630;43.022;25.100;2023-12-04T00:32:44;;;;6.60
70969;BMP280;58630;43.022;25.100;2023-12-04T00:35:10;;;;6.60
70969;BMP280;58630;43.022;25.100;2023-12-04T00:37:35;;;;6.60
70969;BMP280;58630;43.022;25.100;2023-12-04T00:40:04;;;;6.50
70969;BMP280;58630;43.022;25.100;2023-12-04T00:42:30;;;;6.50
70969;BMP280;58630;43.022;25.100;2023-12-04T00:44:55;;;;6.50
70969;BMP280;58630;43.022;25.100;2023-12-04T00:47:21;;;;6.50
70969;BMP280;58630;43.022;25.100;2023-12-04T00:49:46;;;;6.50
70969;BMP280;58630;43.022;25.100;2023-12-04T00:52:12;;;;6.50
70969;BMP280;58630;43.022;25.100;2023-12-04T00:54:40;;;;6.50
70969;BMP280;58630;43.022;25.100;2023-12-04T00:57:06;;;;6.50
70969;BMP280;58630;43.022;25.100;2023-12-04T00:59:31;;;;6.50
70969;BMP280;58630;43.022;25.100;2023-12-04T01:01:57;;;;6.50
70969;BMP280;58630;43.022;25.100;2023-12-04T01:04:23;;;;6.50
70969;BMP280;58630;43.022;25.100;2023-12-04T01:06:48;;;;6.50
70969;BMP280;58630;43.022;25.100;2023-12-04T01:09:14;;;;6.50
70969;BMP280;58630;43.022;25.100;2023-12-04T01:11:39;;;;6.50
70969;BMP280;58630;43.022;25.100;2023-12-04T01:14:05;;;;6.40
70969;BMP280;58630;43.022;25.100;2023-12-04T01:16:30;;;;6.40
70969;BMP280;58630;43.022;25.100;2023-12-04T01:18:56;;;;6.40
70969;BMP280;58630;43.022;25.100;2023-12-04T01:21:22;;;;6.40
70969;BMP280;58630;43.022;25.100;2023-12-04T01:23:47;;;;6.40
70969;BMP280;58630;43.022;25.100;2023-12-04T01:26:13;;;;6.40
70969;BMP280;58630;43.022;25.100;2023-12-04T01:28:38;;;;6.40
70969;BMP280;58630;43.022;25.100;2023-12-04T01:31:04;;;;6.40
70969;BMP280;58630;43.022;25.100;2023-12-04T01:33:30;;;;6.40
70969;BMP280;58630;43.022;25.100;2023-12-04T01:35:56;;;;6.40
70969;BMP280;58630;43.022;25.100;2023-12-04T01:38:21;;;;6.40
70969;BMP280;58630;43.022;25.100;2023-12-04T01:40:47;;;;6.40
70969;BMP280;58630;43.022;25.100;2023-12-04T01:43:12;;;;6.40
70969;BMP280;58630;43.022;25.100;2023-12-04T01:45:38;;;;6.40
70969;BMP280;58630;43.022;25.100;2023-12-04T01:48:03;;;;6.40
70969;BMP280;58630;43.022;25.100;2023-12-04T01:50:29;;;;6.40
70969;BMP280;58630;43.022;25.100;2023-12-04T01:52:55;;;;6.40
70969;BMP280;58630;43.022;25.100;2023-12-04T01:55:21;;;;6.30
70969;BMP280;58630;43.022;25.100;2023-12-04T01:57:47;;;;6.40
70969;BMP280;58630;43.022;25.100;2023-12-04T02:00:13;;;;6.40
70969;BMP280;58630;43.022;25.100;2023-12-04T02:02:40;;;;6.30
70969;BMP280;58630;43.022;25.100;2023-12-04T02:05:07;;;;6.30
70969;BMP280;58630;43.022;25.100;2023-12-04T02:07:33;;;;6.30
70969;BMP280;58630;43.022;25.100;2023-12-04T02:09:58;;;;6.30
70969;BMP280;58630;43.022;25.100;2023-12-04T02:12:24;;;;6.30
70969;BMP280;58630;43.022;25.100;2023-12-04T02:14:50;;;;6.30
70969;BMP280;58630;43.022;25.100;2023-12-04T02:17:16;;;;6.30
70969;BMP280;58630;43.022;25.100;2023-12-04T02:19:42;;;;6.30
70969;BMP280;58630;43.022;25.100;2023-12-04T02:22:08;;;;6.30
70969;BMP280;58630;43.022;25.100;2023-12-04T02:24:33;;;;6.30
70969;BMP280;58630;43.022;25.100;2023-12-04T02:27:04;;;;6.30
70969;BMP280;58630;43.022;25.100;2023-12-04T02:29:31;;;;6.30
70969;BMP280;58630;43.022;25.100;2023-12-04T02:31:58;;;;6.30
70969;BMP280;58630;43.022;25.100;2023-12-04T02:34:23;;;;6.30
70969;BMP280;58630;43.022;25.100;2023-12-04T02:36:50;;;;6.30
70969;BMP280;58630;43.022;25.100;2023-12-04T02:39:16;;;;6.30
70969;BMP280;58630;43.022;25.100;2023-12-04T02:41:41;;;;6.30
70969;BMP280;58630;43.022;25.100;2023-12-04T02:44:07;;;;6.30
70969;BMP280;58630;43.022;25.100;2023-12-04T02:46:32;;;;6.30
70969;BMP280;58630;43.022;25.100;2023-12-04T02:48:58;;;;6.30
70969;BMP280;58630;43.022;25.100;2023-12-04T02:51:23;;;;6.30
70969;BMP280;58630;43.022;25.100;2023-12-04T02:53:51;;;;6.30
70969;BMP280;58630;43.022;25.100;2023-12-04T02:56:17;;;;6.30
70969;BMP280;58630;43.022;25.100;2023-12-04T02:58:42;;;;6.30
70969;BMP280;58630;43.022;25.100;2023-12-04T03:01:08;;;;6.30
70969;BMP280;58630;43.022;25.100;2023-12-04T03:03:33;;;;6.30
70969;BMP280;58630;43.022;25.100;2023-12-04T03:05:59;;;;6.30
70969;BMP280;58630;43.022;25.100;2023-12-04T03:08:25;;;;6.30
70969;BMP280;58630;43.022;25.100;2023-12-04T03:10:50;;;;6.30
70969;BMP280;58630;43.022;25.100;2023-12-04T03:13:16;;;;6.30
70969;BMP280;58630;43.022;25.100;2023-12-04T03:15:41;;;;6.30
70969;BMP280;58630;43.022;25.100;2023-12-04T03:18:07;;;;6.20
70969;BMP280;58630;43.022;25.100;2023-12-04T03:20:32;;;;6.20
70969;BMP280;58630;43.022;25.100;2023-12-04T03:22:58;;;;6.30
70969;BMP280;58630;43.022;25.100;2023-12-04T03:25:23;;;;6.20
70969;BMP280;58630;43.022;25.100;2023-12-04T03:27:49;;;;6.30
70969;BMP280;58630;43.022;25.100;2023-12-04T03:30:14;;;;6.20
70969;BMP280;58630;43.022;25.100;2023-12-04T03:32:40;;;;6.20
70969;BMP280;58630;43.022;25.100;2023-12-04T03:35:06;;;;6.20
70969;BMP280;58630;43.022;25.100;2023-12-04T03:37:31;;;;6.20
70969;BMP280;58630;43.022;25.100;2023-12-04T03:39:57;;;;6.20
70969;BMP280;58630;43.022;25.100;2023-12-04T03:42:22;;;;6.20
70969;BMP280;58630;43.022;25.100;2023-12-04T03:44:48;;;;6.20
70969;BMP280;58630;43.022;25.100;2023-12-04T03:47:13;;;;6.20
70969;BMP280;58630;43.022;25.100;2023-12-04T03:49:39;;;;6.20
70969;BMP280;58630;43.022;25.100;2023-12-04T03:52:05;;;;6.20
70969;BMP280;58630;43.022;25.100;2023-12-04T03:54:30;;;;6.20
70969;BMP280;58630;43.022;25.100;2023-12-04T03:56:56;;;;6.20
70969;BMP280;58630;43.022;25.100;2023-12-04T03:59:21;;;;6.20
70969;BMP280;58630;43.022;25.100;2023-12-04T04:01:47;;;;6.20
70969;BMP280;58630;43.022;25.100;2023-12-04T04:04:12;;;;6.20
70969;BMP280;58630;43.022;25.100;2023-12-04T04:06:38;;;;6.10
70969;BMP280;58630;43.022;25.100;2023-12-04T04:09:04;;;;6.10
70969;BMP280;58630;43.022;25.100;2023-12-04T04:11:30;;;;6.10
70969;BMP280;58630;43.022;25.100;2023-12-04T04:13:56;;;;6.10
70969;BMP280;58630;43.022;25.100;2023-12-04T04:16:21;;;;6.10
70969;BMP280;58630;43.022;25.100;2023-12-04T04:18:47;;;;6.10
70969;BMP280;58630;43.022;25.100;2023-12-04T04:21:12;;;;6.10
70969;BMP280;58630;43.022;25.100;2023-12-04T04:23:38;;;;6.10
70969;BMP280;58630;43.022;25.100;2023-12-04T04:26:03;;;;6.10
70969;BMP280;58630;43.022;25.100;2023-12-04T04:28:29;;;;6.10
70969;BMP280;58630;43.022;25.100;2023-12-04T04:30:54;;;;6.10
70969;BMP280;58630;43.022;25.100;2023-12-04T04:33:20;;;;6.10
70969;BMP280;58630;43.022;25.100;2023-12-04T04:35:45;;;;6.10
70969;BMP280;58630;43.022;25.100;2023-12-04T04:38:11;;;;6.10
70969;BMP280;58630;43.022;25.100;2023-12-04T04:40:37;;;;6.10
70969;BMP280;58630;43.022;25.100;2023-12-04T04:43:07;;;;6.10
70969;BMP280;58630;43.022;25.100;2023-12-04T04:45:33;;;;6.10
70969;BMP280;58630;43.022;25.100;2023-12-04T04:47:58;;;;6.10
70969;BMP280;58630;43.022;25.100;2023-12-04T04:50:24;;;;6.10
70969;BMP280;58630;43.022;25.100;2023-12-04T04:52:49;;;;6.10
70969;BMP280;58630;43.022;25.100;2023-12-04T04:55:15;;;;6.10
70969;BMP280;58630;43.022;25.100;2023-12-04T04:57:40;;;;6.10
70969;BMP280;58630;43.022;25.100;2023-12-04T05:00:06;;;;6.10
70969;BMP280;58630;43.022;25.100;2023-12-04T05:02:32;;;;6.10
70969;BMP280;58630;43.022;25.100;2023-12-04T05:04:58;;;;6.10
70969;BMP280;58630;43.022;25.100;2023-12-04T05:07:23;;;;6.10
70969;BMP280;58630;43.022;25.100;2023-12-04T05:09:49;;;;6.10
70969;BMP280;58630;43.022;25.100;2023-12-04T05:12:14;;;;6.10
70969;BMP280;58630;43.022;25.100;2023-12-04T05:14:40;;;;6.10
70969;BMP280;58630;43.022;25.100;2023-12-04T05:17:05;;;;6.10
70969;BMP280;58630;43.022;25.100;2023-12-04T05:19:31;;;;6.10
70969;BMP280;58630;43.022;25.100;2023-12-04T05:21:56;;;;6.10
70969;BMP280;58630;43.022;25.100;2023-12-04T05:24:22;;;;6.10
70969;BMP280;58630;43.022;25.100;2023-12-04T05:26:47;;;;6.10
70969;BMP280;58630;43.022;25.100;2023-12-04T05:29:13;;;;6.00
70969;BMP280;58630;43.022;25.100;2023-12-04T05:31:38;;;;6.00
70969;BMP280;58630;43.022;25.100;2023-12-04T05:34:04;;;;6.00
70969;BMP280;58630;43.022;25.100;2023-12-04T05:36:29;;;;6.00
70969;BMP280;58630;43.022;25.100;2023-12-04T05:38:55;;;;6.00
70969;BMP280;58630;43.022;25.100;2023-12-04T05:41:20;;;;6.00
70969;BMP280;58630;43.022;25.100;2023-12-04T05:43:46;;;;6.00
70969;BMP280;58630;43.022;25.100;2023-12-04T05:46:12;;;;6.00
70969;BMP280;58630;43.022;25.100;2023-12-04T05:48:38;;;;6.00
70969;BMP280;58630;43.022;25.100;2023-12-04T05:51:04;;;;6.00
70969;BMP280;58630;43.022;25.100;2023-12-04T05:53:30;;;;6.00
70969;BMP280;58630;43.022;25.100;2023-12-04T05:55:56;;;;6.00
70969;BMP280;58630;43.022;25.100;2023-12-04T05:58:21;;;;5.90
70969;BMP280;58630;43.022;25.100;2023-12-04T06:00:47;;;;5.90
70969;BMP280;58630;43.022;25.100;2023-12-04T06:03:12;;;;5.90
70969;BMP280;58630;43.022;25.100;2023-12-04T06:05:38;;;;5.90
70969;BMP280;58630;43.022;25.100;2023-12-04T06:08:03;;;;5.90
70969;BMP280;58630;43.022;25.100;2023-12-04T06:10:30;;;;5.90
70969;BMP280;58630;43.022;25.100;2023-12-04T06:12:55;;;;5.90
70969;BMP280;58630;43.022;25.100;2023-12-04T06:15:21;;;;5.90
70969;BMP280;58630;43.022;25.100;2023-12-04T06:17:46;;;;5.90
70969;BMP280;58630;43.022;25.100;2023-12-04T06:20:12;;;;5.90
70969;BMP280;58630;43.022;25.100;2023-12-04T06:22:37;;;;5.90
70969;BMP280;58630;43.022;25.100;2023-12-04T06:25:03;;;;5.90
70969;BMP280;58630;43.022;25.100;2023-12-04T06:27:29;;;;5.90
70969;BMP280;58630;43.022;25.100;2023-12-04T06:29:55;;;;5.90
70969;BMP280;58630;43.022;25.100;2023-12-04T06:32:20;;;;5.90
70969;BMP280;58630;43.022;25.100;2023-12-04T06:34:46;;;;5.90
70969;BMP280;58630;43.022;25.100;2023-12-04T06:37:12;;;;5.90
70969;BMP280;58630;43.022;25.100;2023-12-04T06:39:38;;;;5.90
70969;BMP280;58630;43.022;25.100;2023-12-04T06:42:07;;;;5.90
70969;BMP280;58630;43.022;25.100;2023-12-04T06:44:33;;;;5.90
70969;BMP280;58630;43.022;25.100;2023-12-04T06:47:02;;;;5.90
70969;BMP280;58630;43.022;25.100;2023-12-04T06:49:31;;;;5.90
70969;BMP280;58630;43.022;25.100;2023-12-04T06:52:00;;;;5.90
70969;BMP280;58630;43.022;25.100;2023-12-04T06:54:26;;;;5.90
70969;BMP280;58630;43.022;25.100;2023-12-04T06:56:51;;;;5.90
70969;BMP280;58630;43.022;25.100;2023-12-04T06:59:17;;;;5.90
70969;BMP280;58630;43.022;25.100;2023-12-04T07:01:43;;;;5.90
70969;BMP280;58630;43.022;25.100;2023-12-04T07:04:08;;;;5.90
70969;BMP280;58630;43.022;25.100;2023-12-04T07:06:37;;;;5.90
70969;BMP280;58630;43.022;25.100;2023-12-04T07:09:03;;;;5.90
70969;BMP280;58630;43.022;25.100;2023-12-04T07:11:29;;;;5.90
70969;BMP280;58630;43.022;25.100;2023-12-04T07:13:55;;;;5.90
70969;BMP280;58630;43.022;25.100;2023-12-04T07:16:20;;;;5.90
70969;BMP280;58630;43.022;25.100;2023-12-04T07:18:46;;;;5.90
70969;BMP280;58630;43.022;25.100;2023-12-04T07:21:11;;;;5.90
70969;BMP280;58630;43.022;25.100;2023-12-04T07:23:37;;;;5.90
70969;BMP280;58630;43.022;25.100;2023-12-04T07:26:03;;;;6.00
70969;BMP280;58630;43.022;25.100;2023-12-04T07:28:29;;;;5.90
70969;BMP280;58630;43.022;25.100;2023-12-04T07:30:55;;;;6.00
70969;BMP280;58630;43.022;25.100;2023-12-04T07:33:21;;;;6.00
70969;BMP280;58630;43.022;25.100;2023-12-04T07:35:46;;;;6.00
70969;BMP280;58630;43.022;25.100;2023-12-04T07:38:12;;;;6.00
70969;BMP280;58630;43.022;25.100;2023-12-04T07:40:37;;;;6.00
70969;BMP280;58630;43.022;25.100;2023-12-04T07:43:03;;;;6.00
70969;BMP280;58630;43.022;25.100;2023-12-04T07:45:28;;;;6.00
70969;BMP280;58630;43.022;25.100;2023-12-04T07:47:54;;;;6.00
70969;BMP280;58630;43.022;25.100;2023-12-04T07:50:20;;;;6.00
70969;BMP280;58630;43.022;25.100;2023-12-04T07:52:46;;;;6.00
70969;BMP280;58630;43.022;25.100;2023-12-04T07:55:11;;;;6.00
70969;BMP280;58630;43.022;25.100;2023-12-04T07:57:37;;;;6.00
70969;BMP280;58630;43.022;25.100;2023-12-04T08:00:02;;;;6.00
70969;BMP280;58630;43.022;25.100;2023-12-04T08:02:28;;;;6.00
70969;BMP280;58630;43.022;25.100;2023-12-04T08:04:54;;;;6.00
70969;BMP280;58630;43.022;25.100;2023-12-04T08:07:19;;;;6.10
70969;BMP280;58630;43.022;25.100;2023-12-04T08:09:45;;;;6.10
70969;BMP280;58630;43.022;25.100;2023-12-04T08:12:10;;;;6.10
70969;BMP280;58630;43.022;25.100;2023-12-04T08:14:36;;;;6.10
70969;BMP280;58630;43.022;25.100;2023-12-04T08:17:01;;;;6.10
70969;BMP280;58630;43.022;25.100;2023-12-04T08:19:27;;;;6.10
70969;BMP280;58630;43.022;25.100;2023-12-04T08:21:52;;;;6.10
70969;BMP280;58630;43.022;25.100;2023-12-04T08:24:18;;;;6.10
70969;BMP280;58630;43.022;25.100;2023-12-04T08:26:46;;;;6.10
70969;BMP280;58630;43.022;25.100;2023-12-04T08:29:12;;;;6.10
70969;BMP280;58630;43.022;25.100;2023-12-04T08:31:37;;;;6.10
70969;BMP280;58630;43.022;25.100;2023-12-04T08:34:03;;;;6.10
70969;BMP280;58630;43.022;25.100;2023-12-04T08:36:29;;;;6.10
70969;BMP280;58630;43.022;25.100;2023-12-04T08:38:55;;;;6.10
70969;BMP280;58630;43.022;25.100;2023-12-04T08:41:20;;;;6.10
70969;BMP280;58630;43.022;25.100;2023-12-04T08:43:46;;;;6.10
70969;BMP280;58630;43.022;25.100;2023-12-04T08:46:12;;;;6.10
70969;BMP280;58630;43.022;25.100;2023-12-04T08:48:39;;;;6.10
70969;BMP280;58630;43.022;25.100;2023-12-04T08:51:05;;;;6.10
70969;BMP280;58630;43.022;25.100;2023-12-04T08:53:31;;;;6.10
70969;BMP280;58630;43.022;25.100;2023-12-04T08:55:56;;;;6.10
70969;BMP280;58630;43.022;25.100;2023-12-04T08:58:23;;;;6.10
70969;BMP280;58630;43.022;25.100;2023-12-04T09:00:48;;;;6.10
70969;BMP280;58630;43.022;25.100;2023-12-04T09:03:14;;;;6.10
70969;BMP280;58630;43.022;25.100;2023-12-04T09:05:39;;;;6.10
70969;BMP280;58630;43.022;25.100;2023-12-04T09:08:05;;;;6.20
70969;BMP280;58630;43.022;25.100;2023-12-04T09:10:32;;;;6.20
70969;BMP280;58630;43.022;25.100;2023-12-04T09:12:57;;;;6.20
70969;BMP280;58630;43.022;25.100;2023-12-04T09:15:23;;;;6.20
70969;BMP280;58630;43.022;25.100;2023-12-04T09:17:48;;;;6.20
70969;BMP280;58630;43.022;25.100;2023-12-04T09:20:14;;;;6.20
70969;BMP280;58630;43.022;25.100;2023-12-04T09:22:40;;;;6.20
70969;BMP280;58630;43.022;25.100;2023-12-04T09:25:06;;;;6.20
70969;BMP280;58630;43.022;25.100;2023-12-04T09:27:31;;;;6.20
70969;BMP280;58630;43.022;25.100;2023-12-04T09:29:57;;;;6.20
70969;BMP280;58630;43.022;25.100;2023-12-04T09:32:22;;;;6.20
70969;BMP280;58630;43.022;25.100;2023-12-04T09:34:48;;;;6.20
70969;BMP280;58630;43.022;25.100;2023-12-04T09:37:14;;;;6.20
70969;BMP280;58630;43.022;25.100;2023-12-04T09:39:40;;;;6.20
70969;BMP280;58630;43.022;25.100;2023-12-04T09:42:05;;;;6.20
70969;BMP280;58630;43.022;25.100;2023-12-04T09:44:31;;;;6.20
70969;BMP280;58630;43.022;25.100;2023-12-04T09:46:57;;;;6.20
70969;BMP280;58630;43.022;25.100;2023-12-04T09:49:24;;;;6.20
70969;BMP280;58630;43.022;25.100;2023-12-04T09:51:51;;;;6.20
70969;BMP280;58630;43.022;25.100;2023-12-04T09:54:17;;;;6.20
70969;BMP280;58630;43.022;25.100;2023-12-04T09:56:44;;;;6.20
70969;BMP280;58630;43.022;25.100;2023-12-04T09:59:10;;;;6.30
70969;BMP280;58630;43.022;25.100;2023-12-04T10:01:38;;;;6.20
70969;BMP280;58630;43.022;25.100;2023-12-04T10:04:04;;;;6.30
70969;BMP280;58630;43.022;25.100;2023-12-04T10:06:33;;;;6.20
70969;BMP280;58630;43.022;25.100;2023-12-04T10:08:58;;;;6.30
70969;BMP280;58630;43.022;25.100;2023-12-04T10:11:24;;;;6.30
70969;BMP280;58630;43.022;25.100;2023-12-04T10:13:52;;;;6.30
70969;BMP280;58630;43.022;25.100;2023-12-04T10:16:36;;;;6.30
70969;BMP280;58630;43.022;25.100;2023-12-04T10:21:39;;;;6.30
70969;BMP280;58630;43.022;25.100;2023-12-04T10:24:05;;;;6.30
70969;BMP280;58630;43.022;25.100;2023-12-04T10:26:31;;;;6.30
70969;BMP280;58630;43.022;25.100;2023-12-04T10:29:00;;;;6.30
70969;BMP280;58630;43.022;25.100;2023-12-04T10:31:26;;;;6.30
70969;BMP280;58630;43.022;25.100;2023-12-04T10:33:52;;;;6.30
70969;BMP280;58630;43.022;25.100;2023-12-04T10:36:17;;;;6.30
70969;BMP280;58630;43.022;25.100;2023-12-04T10:38:44;;;;6.30
70969;BMP280;58630;43.022;25.100;2023-12-04T10:41:13;;;;6.30
70969;BMP280;58630;43.022;25.100;2023-12-04T10:43:46;;;;6.40
70969;BMP280;58630;43.022;25.100;2023-12-04T10:46:11;;;;6.40
70969;BMP280;58630;43.022;25.100;2023-12-04T10:48:37;;;;6.40
70969;BMP280;58630;43.022;25.100;2023-12-04T10:51:03;;;;6.40
70969;BMP280;58630;43.022;25.100;2023-12-04T10:53:30;;;;6.40
70969;BMP280;58630;43.022;25.100;2023-12-04T10:55:56;;;;6.40
70969;BMP280;58630;43.022;25.100;2023-12-04T10:58:23;;;;6.50
70969;BMP280;58630;43.022;25.100;2023-12-04T11:00:51;;;;6.50
70969;BMP280;58630;43.022;25.100;2023-12-04T11:03:20;;;;6.50
70969;BMP280;58630;43.022;25.100;2023-12-04T11:05:49;;;;6.50
70969;BMP280;58630;43.022;25.100;2023-12-04T11:08:16;;;;6.50
70969;BMP280;58630;43.022;25.100;2023-12-04T11:13:21;;;;6.60
70969;BMP280;58630;43.022;25.100;2023-12-04T11:15:47;;;;6.60
70969;BMP280;58630;43.022;25.100;2023-12-04T11:18:15;;;;6.60
70969;BMP280;58630;43.022;25.100;2023-12-04T11:23:35;;;;6.80
70969;BMP280;58630;43.022;25.100;2023-12-04T11:26:01;;;;6.90
70969;BMP280;58630;43.022;25.100;2023-12-04T11:28:28;;;;6.90
70969;BMP280;58630;43.022;25.100;2023-12-04T11:30:54;;;;7.00
70969;BMP280;58630;43.022;25.100;2023-12-04T11:33:20;;;;7.10
70969;BMP280;58630;43.022;25.100;2023-12-04T11:35:46;;;;7.20
70969;BMP280;58630;43.022;25.100;2023-12-04T11:38:14;;;;7.30
70969;BMP280;58630;43.022;25.100;2023-12-04T11:40:41;;;;7.40
70969;BMP280;58630;43.022;25.100;2023-12-04T11:46:09;;;;7.60
70969;BMP280;58630;43.022;25.100;2023-12-04T11:48:37;;;;7.70
70969;BMP280;58630;43.022;25.100;2023-12-04T11:51:04;;;;7.90
70969;BMP280;58630;43.022;25.100;2023-12-04T11:53:30;;;;8.00
70969;BMP280;58630;43.022;25.100;2023-12-04T11:55:56;;;;8.10
70969;BMP280;58630;43.022;25.100;2023-12-04T11:58:24;;;;8.20
70969;BMP280;58630;43.022;25.100;2023-12-04T12:00:49;;;;8.30
70969;BMP280;58630;43.022;25.100;2023-12-04T12:03:17;;;;8.40
70969;BMP280;58630;43.022;25.100;2023-12-04T12:05:43;;;;8.60
70969;BMP280;58630;43.022;25.100;2023-12-04T12:08:09;;;;8.70
70969;BMP280;58630;43.022;25.100;2023-12-04T12:10:34;;;;8.80
70969;BMP280;58630;43.022;25.100;2023-12-04T12:13:00;;;;9.00
70969;BMP280;58630;43.022;25.100;2023-12-04T12:15:26;;;;9.10
70969;BMP280;58630;43.022;25.100;2023-12-04T12:17:52;;;;9.30
70969;BMP280;58630;43.022;25.100;2023-12-04T12:20:18;;;;9.50
70969;BMP280;58630;43.022;25.100;2023-12-04T12:22:45;;;;9.70
70969;BMP280;58630;43.022;25.100;2023-12-04T12:25:13;;;;9.90
70969;BMP280;58630;43.022;25.100;2023-12-04T12:27:39;;;;10.10
70969;BMP280;58630;43.022;25.100;2023-12-04T12:30:05;;;;10.40
70969;BMP280;58630;43.022;25.100;2023-12-04T12:32:31;;;;10.70
70969;BMP280;58630;43.022;25.100;2023-12-04T12:34:57;;;;11.00
70969;BMP280;58630;43.022;25.100;2023-12-04T12:37:23;;;;11.40
70969;BMP280;58630;43.022;25.100;2023-12-04T12:39:48;;;;11.70
70969;BMP280;58630;43.022;25.100;2023-12-04T12:42:27;;;;12.00
70969;BMP280;58630;43.022;25.100;2023-12-04T12:44:53;;;;12.20
70969;BMP280;58630;43.022;25.100;2023-12-04T12:47:18;;;;12.50
70969;BMP280;58630;43.022;25.100;2023-12-04T12:49:44;;;;12.70
70969;BMP280;58630;43.022;25.100;2023-12-04T12:52:10;;;;12.80
70969;BMP280;58630;43.022;25.100;2023-12-04T12:54:36;;;;13.00
70969;BMP280;58630;43.022;25.100;2023-12-04T12:57:03;;;;13.20
70969;BMP280;58630;43.022;25.100;2023-12-04T12:59:29;;;;13.40
70969;BMP280;58630;43.022;25.100;2023-12-04T13:01:54;;;;13.30
70969;BMP280;58630;43.022;25.100;2023-12-04T13:04:22;;;;13.20
70969;BMP280;58630;43.022;25.100;2023-12-04T13:06:47;;;;13.30
70969;BMP280;58630;43.022;25.100;2023-12-04T13:09:13;;;;13.30
70969;BMP280;58630;43.022;25.100;2023-12-04T13:11:46;;;;13.30
70969;BMP280;58630;43.022;25.100;2023-12-04T13:14:11;;;;13.20
70969;BMP280;58630;43.022;25.100;2023-12-04T13:16:37;;;;12.90
70969;BMP280;58630;43.022;25.100;2023-12-04T13:19:03;;;;12.50
70969;BMP280;58630;43.022;25.100;2023-12-04T13:21:28;;;;12.10
70969;BMP280;58630;43.022;25.100;2023-12-04T13:23:54;;;;11.80
70969;BMP280;58630;43.022;25.100;2023-12-04T13:26:20;;;;11.50
70969;BMP280;58630;43.022;25.100;2023-12-04T13:28:46;;;;11.30
70969;BMP280;58630;43.022;25.100;2023-12-04T13:31:12;;;;11.10
70969;BMP280;58630;43.022;25.100;2023-12-04T13:33:38;;;;11.00
70969;BMP280;58630;43.022;25.100;2023-12-04T13:36:04;;;;10.90
70969;BMP280;58630;43.022;25.100;2023-12-04T13:38:29;;;;10.80
70969;BMP280;58630;43.022;25.100;2023-12-04T13:40:55;;;;10.80
70969;BMP280;58630;43.022;25.100;2023-12-04T13:43:39;;;;10.70
70969;BMP280;58630;43.022;25.100;2023-12-04T13:46:18;;;;10.70
70969;BMP280;58630;43.022;25.100;2023-12-04T13:48:43;;;;10.60
70969;BMP280;58630;43.022;25.100;2023-12-04T13:51:09;;;;10.60
70969;BMP280;58630;43.022;25.100;2023-12-04T13:53:35;;;;10.50
70969;BMP280;58630;43.022;25.100;2023-12-04T13:56:05;;;;10.50
70969;BMP280;58630;43.022;25.100;2023-12-04T13:58:46;;;;10.50
70969;BMP280;58630;43.022;25.100;2023-12-04T14:01:14;;;;10.50
70969;BMP280;58630;43.022;25.100;2023-12-04T14:03:41;;;;10.40
70969;BMP280;58630;43.022;25.100;2023-12-04T14:06:07;;;;10.40
70969;BMP280;58630;43.022;25.100;2023-12-04T14:08:33;;;;10.40
70969;BMP280;58630;43.022;25.100;2023-12-04T14:10:58;;;;10.40
70969;BMP280;58630;43.022;25.100;2023-12-04T14:13:24;;;;10.30
70969;BMP280;58630;43.022;25.100;2023-12-04T14:15:49;;;;10.30
70969;BMP280;58630;43.022;25.100;2023-12-04T14:18:15;;;;10.30
70969;BMP280;58630;43.022;25.100;2023-12-04T14:20:40;;;;10.30
70969;BMP280;58630;43.022;25.100;2023-12-04T14:23:06;;;;10.30
70969;BMP280;58630;43.022;25.100;2023-12-04T14:25:31;;;;10.30
70969;BMP280;58630;43.022;25.100;2023-12-04T14:27:57;;;;10.20
70969;BMP280;58630;43.022;25.100;2023-12-04T14:30:23;;;;10.20
70969;BMP280;58630;43.022;25.100;2023-12-04T14:32:48;;;;10.20
70969;BMP280;58630;43.022;25.100;2023-12-04T14:35:14;;;;10.20
70969;BMP280;58630;43.022;25.100;2023-12-04T14:37:40;;;;10.20
70969;BMP280;58630;43.022;25.100;2023-12-04T14:40:05;;;;10.10
70969;BMP280;58630;43.022;25.100;2023-12-04T14:42:31;;;;10.10
70969;BMP280;58630;43.022;25.100;2023-12-04T14:44:56;;;;10.10
70969;BMP280;58630;43.022;25.100;2023-12-04T14:47:22;;;;10.10
70969;BMP280;58630;43.022;25.100;2023-12-04T14:49:48;;;;10.00
70969;BMP280;58630;43.022;25.100;2023-12-04T14:52:18;;;;10.00
70969;BMP280;58630;43.022;25.100;2023-12-04T14:54:47;;;;10.00
70969;BMP280;58630;43.022;25.100;2023-12-04T14:57:47;;;;10.00
70969;BMP280;58630;43.022;25.100;2023-12-04T15:00:25;;;;9.90
70969;BMP280;58630;43.022;25.100;2023-12-04T15:03:19;;;;9.90
70969;BMP280;58630;43.022;25.100;2023-12-04T15:06:03;;;;9.90
70969;BMP280;58630;43.022;25.100;2023-12-04T15:08:38;;;;9.90
70969;BMP280;58630;43.022;25.100;2023-12-04T15:11:22;;;;9.80
70969;BMP280;58630;43.022;25.100;2023-12-04T15:14:10;;;;9.80
70969;BMP280;58630;43.022;25.100;2023-12-04T15:17:08;;;;9.80
70969;BMP280;58630;43.022;25.100;2023-12-04T15:19:54;;;;9.70
70969;BMP280;58630;43.022;25.100;2023-12-04T15:22:35;;;;9.70
70969;BMP280;58630;43.022;25.100;2023-12-04T15:25:02;;;;9.70
70969;BMP280;58630;43.022;25.100;2023-12-04T15:27:28;;;;9.70
70969;BMP280;58630;43.022;25.100;2023-12-04T15:29:53;;;;9.60
70969;BMP280;58630;43.022;25.100;2023-12-04T15:32:19;;;;9.60
70969;BMP280;58630;43.022;25.100;2023-12-04T15:34:44;;;;9.60
70969;BMP280;58630;43.022;25.100;2023-12-04T15:37:10;;;;9.60
70969;BMP280;58630;43.022;25.100;2023-12-04T15:39:35;;;;9.50
70969;BMP280;58630;43.022;25.100;2023-12-04T15:42:01;;;;9.50
70969;BMP280;58630;43.022;25.100;2023-12-04T15:44:30;;;;9.50
70969;BMP280;58630;43.022;25.100;2023-12-04T15:46:56;;;;9.50
70969;BMP280;58630;43.022;25.100;2023-12-04T15:49:22;;;;9.40
70969;BMP280;58630;43.022;25.100;2023-12-04T15:51:48;;;;9.40
70969;BMP280;58630;43.022;25.100;2023-12-04T15:54:13;;;;9.40
70969;BMP280;58630;43.022;25.100;2023-12-04T15:56:39;;;;9.30
70969;BMP280;58630;43.022;25.100;2023-12-04T15:59:04;;;;9.30
70969;BMP280;58630;43.022;25.100;2023-12-04T16:01:30;;;;9.30
70969;BMP280;58630;43.022;25.100;2023-12-04T16:03:55;;;;9.30